createdAt,value
2018-07-13T00:00:48.603Z,0.00
2018-07-13T00:01:48.656Z,0.00
2018-07-13T00:02:48.705Z,0.00
2018-07-13T00:03:48.788Z,0.00
2018-07-13T00:04:48.805Z,0.00
2018-07-13T00:05:48.856Z,0.00
2018-07-13T00:06:48.905Z,0.00
2018-07-13T00:07:48.953Z,0.00
2018-07-13T00:08:49.033Z,0.00
2018-07-13T00:09:49.052Z,0.00
2018-07-13T00:10:49.103Z,0.00
2018-07-13T00:11:49.158Z,0.00
2018-07-13T00:12:49.205Z,0.00
2018-07-13T00:13:49.277Z,0.00
2018-07-13T00:14:49.326Z,0.00
2018-07-13T00:15:49.355Z,0.00
2018-07-13T00:16:49.404Z,0.00
2018-07-13T00:17:49.452Z,0.00
2018-07-13T00:18:49.501Z,0.00
2018-07-13T00:19:49.594Z,0.00
2018-07-13T00:20:49.601Z,0.00
2018-07-13T00:21:49.650Z,0.00
2018-07-13T00:22:49.702Z,0.00
2018-07-13T00:23:49.750Z,0.00
2018-07-13T00:24:49.836Z,0.00
2018-07-13T00:25:49.852Z,0.00
2018-07-13T00:26:49.900Z,0.00
2018-07-13T00:27:49.951Z,0.00
2018-07-13T00:28:49.997Z,0.00
2018-07-13T00:29:50.078Z,0.00
2018-07-13T00:30:50.109Z,0.00
2018-07-13T00:31:50.148Z,0.00
2018-07-13T00:32:50.200Z,0.00
2018-07-13T00:33:50.247Z,0.00
2018-07-13T00:34:50.335Z,0.00
2018-07-13T00:35:50.346Z,0.00
2018-07-13T00:36:50.401Z,0.00
2018-07-13T00:37:50.448Z,0.00
2018-07-13T00:38:50.495Z,0.00
2018-07-13T00:39:50.577Z,0.00
2018-07-13T00:40:50.594Z,0.00
2018-07-13T00:41:50.687Z,0.00
2018-07-13T00:42:50.696Z,0.00
2018-07-13T00:43:50.742Z,0.00
2018-07-13T00:44:50.793Z,0.00
2018-07-13T00:45:50.842Z,0.00
2018-07-13T00:46:50.922Z,0.00
2018-07-13T00:47:50.941Z,0.00
2018-07-13T00:48:50.990Z,0.00
2018-07-13T00:49:51.046Z,0.00
2018-07-13T00:50:51.091Z,0.00
2018-07-13T00:51:51.165Z,0.00
2018-07-13T00:52:51.190Z,0.00
2018-07-13T00:53:51.239Z,0.00
2018-07-13T00:54:51.290Z,0.00
2018-07-13T00:55:51.338Z,0.00
2018-07-13T00:56:51.417Z,0.00
2018-07-13T00:57:51.439Z,0.00
2018-07-13T00:58:51.487Z,0.00
2018-07-13T00:59:51.539Z,0.00
2018-07-13T01:00:51.586Z,0.00
2018-07-13T01:01:51.669Z,0.00
2018-07-13T01:02:51.685Z,0.00
2018-07-13T01:03:51.760Z,0.00
2018-07-13T01:04:51.784Z,0.00
2018-07-13T01:05:51.834Z,0.00
2018-07-13T01:06:51.887Z,0.00
2018-07-13T01:07:51.935Z,0.00
2018-07-13T01:08:52.097Z,0.00
2018-07-13T01:09:52.036Z,0.00
2018-07-13T01:10:52.081Z,0.00
2018-07-13T01:11:52.136Z,0.00
2018-07-13T01:12:52.211Z,0.00
2018-07-13T01:13:52.231Z,0.00
2018-07-13T01:14:52.283Z,0.00
2018-07-13T01:15:52.330Z,0.00
2018-07-13T01:16:52.378Z,0.00
2018-07-13T01:17:52.455Z,0.00
2018-07-13T01:18:52.502Z,0.00
2018-07-13T01:19:52.544Z,0.00
2018-07-13T01:20:52.578Z,0.00
2018-07-13T01:21:52.626Z,0.00
2018-07-13T01:22:52.692Z,0.00
2018-07-13T01:23:52.748Z,0.00
2018-07-13T01:24:52.778Z,0.00
2018-07-13T01:25:52.830Z,0.00
2018-07-13T01:26:52.875Z,0.00
2018-07-13T01:27:52.922Z,0.00
2018-07-13T01:28:52.998Z,0.00
2018-07-13T01:29:53.050Z,0.00
2018-07-13T01:30:53.070Z,0.00
2018-07-13T01:31:53.124Z,0.00
2018-07-13T01:32:53.171Z,0.00
2018-07-13T01:33:53.219Z,0.00
2018-07-13T01:34:53.305Z,0.00
2018-07-13T01:35:53.320Z,0.00
2018-07-13T01:36:53.373Z,0.00
2018-07-13T01:37:53.416Z,0.00
2018-07-13T01:38:53.466Z,0.00
2018-07-13T01:39:53.558Z,0.00
2018-07-13T01:40:53.568Z,0.00
2018-07-13T01:41:53.613Z,0.00
2018-07-13T01:42:53.667Z,0.00
2018-07-13T01:43:53.712Z,0.00
2018-07-13T01:44:53.794Z,0.00
2018-07-13T01:45:53.811Z,0.00
2018-07-13T01:46:53.870Z,0.00
2018-07-13T01:47:53.914Z,0.00
2018-07-13T01:48:53.970Z,0.00
2018-07-13T01:49:54.034Z,0.00
2018-07-13T01:50:54.082Z,0.00
2018-07-13T01:51:54.108Z,0.00
2018-07-13T01:52:54.165Z,0.00
2018-07-13T01:53:54.207Z,0.00
2018-07-13T01:54:54.257Z,0.00
2018-07-13T01:55:54.330Z,0.00
2018-07-13T01:56:54.358Z,0.00
2018-07-13T01:57:54.404Z,0.00
2018-07-13T01:58:54.454Z,0.00
2018-07-13T01:59:54.507Z,0.00
2018-07-13T02:00:54.579Z,0.00
2018-07-13T02:01:54.633Z,0.00
2018-07-13T02:02:54.654Z,0.00
2018-07-13T02:03:54.706Z,0.00
2018-07-13T02:04:54.751Z,0.00
2018-07-13T02:05:54.809Z,0.00
2018-07-13T02:06:55.110Z,0.00
2018-07-13T02:07:54.899Z,0.00
2018-07-13T02:08:54.948Z,0.00
2018-07-13T02:09:54.999Z,0.00
2018-07-13T02:10:55.046Z,0.00
2018-07-13T02:11:55.119Z,0.00
2018-07-13T02:12:55.168Z,0.00
2018-07-13T02:13:55.196Z,0.00
2018-07-13T02:14:55.250Z,0.00
2018-07-13T02:15:55.294Z,0.00
2018-07-13T02:16:55.372Z,0.00
2018-07-13T02:17:55.391Z,0.00
2018-07-13T02:18:55.442Z,0.00
2018-07-13T02:19:55.490Z,0.00
2018-07-13T02:20:55.540Z,0.00
2018-07-13T02:21:55.610Z,0.00
2018-07-13T02:22:55.640Z,0.00
2018-07-13T02:23:55.711Z,0.00
2018-07-13T02:24:55.738Z,0.00
2018-07-13T02:25:55.786Z,0.00
2018-07-13T02:26:55.834Z,0.00
2018-07-13T02:27:55.908Z,0.00
2018-07-13T02:28:55.933Z,0.00
2018-07-13T02:29:55.982Z,0.00
2018-07-13T02:30:56.032Z,0.00
2018-07-13T02:31:56.081Z,0.00
2018-07-13T02:32:56.155Z,0.00
2018-07-13T02:33:56.283Z,0.00
2018-07-13T02:34:56.281Z,0.00
2018-07-13T02:35:56.281Z,0.00
2018-07-13T02:36:56.326Z,0.00
2018-07-13T02:37:56.392Z,0.00
2018-07-13T02:38:56.439Z,0.00
2018-07-13T02:39:56.503Z,0.00
2018-07-13T02:40:56.525Z,0.00
2018-07-13T02:41:56.575Z,0.00
2018-07-13T02:42:56.633Z,0.00
2018-07-13T02:43:56.672Z,0.00
2018-07-13T02:44:56.752Z,0.00
2018-07-13T02:45:56.769Z,0.00
2018-07-13T02:46:56.821Z,0.00
2018-07-13T02:47:56.868Z,0.00
2018-07-13T02:48:56.917Z,0.00
2018-07-13T02:49:56.997Z,0.00
2018-07-13T02:50:57.019Z,0.00
2018-07-13T02:51:57.065Z,0.00
2018-07-13T02:52:57.113Z,0.00
2018-07-13T02:53:57.166Z,0.00
2018-07-13T02:54:57.240Z,0.00
2018-07-13T02:55:57.264Z,0.00
2018-07-13T02:56:57.311Z,0.00
2018-07-13T02:57:57.360Z,0.00
2018-07-13T02:58:57.411Z,0.00
2018-07-13T02:59:57.482Z,0.00
2018-07-13T03:00:57.515Z,4.00
2018-07-13T03:01:57.582Z,4.00
2018-07-13T03:02:57.606Z,0.00
2018-07-13T03:03:57.657Z,4.00
2018-07-13T03:04:58.586Z,4.00
2018-07-13T03:05:57.782Z,4.00
2018-07-13T03:06:57.804Z,4.00
2018-07-13T03:07:57.852Z,8.00
2018-07-13T03:08:57.903Z,8.00
2018-07-13T03:09:57.950Z,8.00
2018-07-13T03:10:58.034Z,8.00
2018-07-13T03:11:58.048Z,12.00
2018-07-13T03:12:58.097Z,16.00
2018-07-13T03:13:58.145Z,20.00
2018-07-13T03:14:58.195Z,20.00
2018-07-13T03:15:58.277Z,20.00
2018-07-13T03:16:58.292Z,28.00
2018-07-13T03:17:58.346Z,28.00
2018-07-13T03:18:58.421Z,36.00
2018-07-13T03:19:58.441Z,40.00
2018-07-13T03:20:58.489Z,48.00
2018-07-13T03:21:58.540Z,52.00
2018-07-13T03:22:58.587Z,64.00
2018-07-13T03:23:58.660Z,72.00
2018-07-13T03:24:58.685Z,76.00
2018-07-13T03:25:58.734Z,92.00
2018-07-13T03:26:58.811Z,100.00
2018-07-13T03:27:58.832Z,116.00
2018-07-13T03:28:58.883Z,128.00
2018-07-13T03:29:58.954Z,140.00
2018-07-13T03:30:58.982Z,156.00
2018-07-13T03:31:59.031Z,172.00
2018-07-13T03:32:59.106Z,192.00
2018-07-13T03:33:59.127Z,212.00
2018-07-13T03:34:59.181Z,232.00
2018-07-13T03:35:59.227Z,252.00
2018-07-13T03:36:59.282Z,272.00
2018-07-13T03:37:59.355Z,296.00
2018-07-13T03:38:59.372Z,324.00
2018-07-13T03:39:59.426Z,348.00
2018-07-13T03:40:59.471Z,372.00
2018-07-13T03:41:59.523Z,400.00
2018-07-13T03:42:59.592Z,432.00
2018-07-13T03:43:59.675Z,456.00
2018-07-13T03:44:59.667Z,488.00
2018-07-13T03:45:59.754Z,520.00
2018-07-13T03:46:59.766Z,552.00
2018-07-13T03:47:59.817Z,584.00
2018-07-13T03:48:59.865Z,620.00
2018-07-13T03:49:59.913Z,652.00
2018-07-13T03:50:59.985Z,692.00
2018-07-13T03:52:00.021Z,728.00
2018-07-13T03:53:00.117Z,764.00
2018-07-13T03:54:00.149Z,804.00
2018-07-13T03:55:00.157Z,840.00
2018-07-13T03:56:00.208Z,880.00
2018-07-13T03:57:00.286Z,920.00
2018-07-13T03:58:00.307Z,960.00
2018-07-13T03:59:00.357Z,1008.00
2018-07-13T04:00:00.428Z,1048.00
2018-07-13T04:01:00.450Z,1088.00
2018-07-13T04:02:00.503Z,1132.00
2018-07-13T04:03:00.573Z,1176.00
2018-07-13T04:04:00.601Z,1220.00
2018-07-13T04:05:00.647Z,1268.00
2018-07-13T04:06:00.697Z,1312.00
2018-07-13T04:07:00.758Z,1360.00
2018-07-13T04:08:00.819Z,1408.00
2018-07-13T04:09:00.846Z,1456.00
2018-07-13T04:10:00.891Z,1500.00
2018-07-13T04:11:00.942Z,1548.00
2018-07-13T04:12:01.016Z,1596.00
2018-07-13T04:13:01.039Z,1644.00
2018-07-13T04:14:01.130Z,1696.00
2018-07-13T04:15:01.138Z,1748.00
2018-07-13T04:16:01.186Z,1800.00
2018-07-13T04:17:01.237Z,1848.00
2018-07-13T04:18:01.284Z,1892.00
2018-07-13T04:19:01.365Z,1940.00
2018-07-13T04:20:01.384Z,1984.00
2018-07-13T04:21:01.432Z,2032.00
2018-07-13T04:22:01.483Z,2076.00
2018-07-13T04:23:01.531Z,2128.00
2018-07-13T04:24:01.609Z,2172.00
2018-07-13T04:25:01.627Z,2224.00
2018-07-13T04:26:01.678Z,2272.00
2018-07-13T04:27:01.725Z,2320.00
2018-07-13T04:28:01.781Z,2376.00
2018-07-13T04:29:01.847Z,2424.00
2018-07-13T04:30:01.881Z,2472.00
2018-07-13T04:31:01.921Z,2520.00
2018-07-13T04:32:01.970Z,2568.00
2018-07-13T04:33:02.046Z,2612.00
2018-07-13T04:34:02.077Z,2664.00
2018-07-13T04:35:02.119Z,2712.00
2018-07-13T04:36:02.170Z,2764.00
2018-07-13T04:37:02.215Z,2812.00
2018-07-13T04:38:02.288Z,2856.00
2018-07-13T04:39:02.313Z,2900.00
2018-07-13T04:40:02.387Z,2948.00
2018-07-13T04:41:02.434Z,2992.00
2018-07-13T04:42:02.486Z,3040.00
2018-07-13T04:43:02.511Z,3088.00
2018-07-13T04:44:02.585Z,3136.00
2018-07-13T04:45:02.609Z,3180.00
2018-07-13T04:46:02.659Z,3224.00
2018-07-13T04:47:02.709Z,3268.00
2018-07-13T04:48:02.761Z,3308.00
2018-07-13T04:49:02.826Z,3348.00
2018-07-13T04:50:02.856Z,3392.00
2018-07-13T04:51:02.925Z,3436.00
2018-07-13T04:52:02.959Z,3476.00
2018-07-13T04:53:02.998Z,3520.00
2018-07-13T04:54:03.048Z,3560.00
2018-07-13T04:55:03.099Z,3600.00
2018-07-13T04:56:03.173Z,3632.00
2018-07-13T04:57:03.195Z,3664.00
2018-07-13T04:58:03.247Z,3692.00
2018-07-13T04:59:03.297Z,3728.00
2018-07-13T05:00:03.347Z,3760.00
2018-07-13T05:01:03.416Z,3796.00
2018-07-13T05:02:03.468Z,3832.00
2018-07-13T05:03:03.493Z,3864.00
2018-07-13T05:04:03.540Z,3900.00
2018-07-13T05:05:03.589Z,3940.00
2018-07-13T05:06:03.644Z,3972.00
2018-07-13T05:07:03.711Z,4012.00
2018-07-13T05:08:03.736Z,4048.00
2018-07-13T05:09:03.789Z,4088.00
2018-07-13T05:10:03.836Z,4124.00
2018-07-13T05:11:03.887Z,4168.00
2018-07-13T05:12:03.960Z,4204.00
2018-07-13T05:13:03.985Z,4244.00
2018-07-13T05:14:04.031Z,4280.00
2018-07-13T05:15:04.086Z,4316.00
2018-07-13T05:16:04.131Z,4348.00
2018-07-13T05:17:04.220Z,4380.00
2018-07-13T05:18:04.230Z,4416.00
2018-07-13T05:19:04.279Z,4448.00
2018-07-13T05:20:04.332Z,4480.00
2018-07-13T05:21:04.376Z,4512.00
2018-07-13T05:22:04.456Z,4544.00
2018-07-13T05:23:04.477Z,4584.00
2018-07-13T05:24:04.531Z,4620.00
2018-07-13T05:25:04.573Z,4660.00
2018-07-13T05:26:04.624Z,4700.00
2018-07-13T05:27:04.709Z,4740.00
2018-07-13T05:28:04.722Z,4780.00
2018-07-13T05:29:04.778Z,4828.00
2018-07-13T05:30:04.823Z,4872.00
2018-07-13T05:31:04.873Z,4916.00
2018-07-13T05:32:04.945Z,4956.00
2018-07-13T05:33:04.972Z,4996.00
2018-07-13T05:34:05.021Z,5040.00
2018-07-13T05:35:05.072Z,5076.00
2018-07-13T05:36:05.120Z,5116.00
2018-07-13T05:37:05.194Z,5160.00
2018-07-13T05:38:05.218Z,5200.00
2018-07-13T05:39:05.268Z,5244.00
2018-07-13T05:40:05.363Z,5292.00
2018-07-13T05:41:05.366Z,5340.00
2018-07-13T05:42:05.419Z,5380.00
2018-07-13T05:43:05.490Z,5412.00
2018-07-13T05:44:05.528Z,5448.00
2018-07-13T05:45:05.590Z,5468.00
2018-07-13T05:46:05.616Z,5500.00
2018-07-13T05:47:05.667Z,5516.00
2018-07-13T05:48:05.714Z,5532.00
2018-07-13T05:49:05.767Z,5564.00
2018-07-13T05:50:05.848Z,5588.00
2018-07-13T05:51:05.866Z,5628.00
2018-07-13T05:52:05.915Z,5660.00
2018-07-13T05:53:05.964Z,5688.00
2018-07-13T05:54:06.016Z,5720.00
2018-07-13T05:55:06.089Z,5748.00
2018-07-13T05:56:06.117Z,5780.00
2018-07-13T05:57:06.161Z,5816.00
2018-07-13T05:58:06.214Z,5864.00
2018-07-13T05:59:06.297Z,5908.00
2018-07-13T06:00:06.313Z,5952.00
2018-07-13T06:01:06.369Z,6000.00
2018-07-13T06:02:06.411Z,6044.00
2018-07-13T06:03:06.466Z,6092.00
2018-07-13T06:04:06.537Z,6124.00
2018-07-13T06:05:06.561Z,6156.00
2018-07-13T06:06:06.641Z,6184.00
2018-07-13T06:07:06.662Z,6216.00
2018-07-13T06:08:06.712Z,6240.00
2018-07-13T06:09:06.766Z,6276.00
2018-07-13T06:10:06.816Z,6312.00
2018-07-13T06:11:06.884Z,6340.00
2018-07-13T06:12:06.912Z,6372.00
2018-07-13T06:13:06.965Z,6396.00
2018-07-13T06:14:07.015Z,6424.00
2018-07-13T06:15:07.873Z,6452.00
2018-07-13T06:16:07.112Z,6476.00
2018-07-13T06:17:07.232Z,6516.00
2018-07-13T06:18:07.222Z,6552.00
2018-07-13T06:19:07.263Z,6592.00
2018-07-13T06:20:07.313Z,6644.00
2018-07-13T06:21:07.386Z,6692.00
2018-07-13T06:22:07.445Z,6736.00
2018-07-13T06:23:07.463Z,6780.00
2018-07-13T06:24:07.563Z,6828.00
2018-07-13T06:25:07.563Z,6860.00
2018-07-13T06:26:07.618Z,6896.00
2018-07-13T06:27:07.704Z,6932.00
2018-07-13T06:28:07.713Z,6964.00
2018-07-13T06:29:07.765Z,7004.00
2018-07-13T06:30:07.833Z,7048.00
2018-07-13T06:31:07.865Z,7108.00
2018-07-13T06:32:07.945Z,7172.00
2018-07-13T06:33:07.968Z,7240.00
2018-07-13T06:34:08.018Z,7304.00
2018-07-13T06:35:08.066Z,7364.00
2018-07-13T06:36:08.128Z,7420.00
2018-07-13T06:37:08.204Z,7472.00
2018-07-13T06:38:08.220Z,7520.00
2018-07-13T06:39:10.333Z,7568.00
2018-07-13T06:40:08.317Z,7608.00
2018-07-13T06:41:08.370Z,7664.00
2018-07-13T06:42:08.450Z,7924.00
2018-07-13T06:43:08.471Z,8156.00
2018-07-13T06:44:08.526Z,8172.00
2018-07-13T06:45:08.568Z,8184.00
2018-07-13T06:46:08.623Z,8184.00
2018-07-13T06:47:08.694Z,8192.00
2018-07-13T06:48:08.754Z,8204.00
2018-07-13T06:49:08.771Z,8208.00
2018-07-13T06:50:08.822Z,8228.00
2018-07-13T06:51:08.873Z,8240.00
2018-07-13T06:52:08.926Z,8256.00
2018-07-13T06:53:09.003Z,8276.00
2018-07-13T06:54:09.025Z,8296.00
2018-07-13T06:55:09.078Z,8312.00
2018-07-13T06:56:09.130Z,8328.00
2018-07-13T06:57:09.185Z,8352.00
2018-07-13T06:58:09.254Z,8384.00
2018-07-13T06:59:09.281Z,8424.00
2018-07-13T07:00:09.337Z,8468.00
2018-07-13T07:01:09.382Z,8508.00
2018-07-13T07:02:09.439Z,8544.00
2018-07-13T07:03:09.512Z,8576.00
2018-07-13T07:04:09.553Z,8612.00
2018-07-13T07:05:09.589Z,8648.00
2018-07-13T07:06:09.641Z,8680.00
2018-07-13T07:07:09.692Z,8712.00
2018-07-13T07:08:09.794Z,8748.00
2018-07-13T07:09:09.797Z,8804.00
2018-07-13T07:10:09.847Z,8852.00
2018-07-13T07:11:09.899Z,8924.00
2018-07-13T07:12:09.955Z,9000.00
2018-07-13T07:13:10.040Z,9084.00
2018-07-13T07:14:10.059Z,9176.00
2018-07-13T07:15:10.110Z,9276.00
2018-07-13T07:16:10.162Z,9424.00
2018-07-13T07:17:10.212Z,9600.00
2018-07-13T07:18:10.301Z,9860.00
2018-07-13T07:19:10.317Z,10320.00
2018-07-13T07:20:10.378Z,11644.00
2018-07-13T07:21:10.424Z,18016.00
2018-07-13T07:22:10.479Z,33152.00
2018-07-13T07:23:10.571Z,47552.00
2018-07-13T07:24:10.588Z,53504.00
2018-07-13T07:25:10.639Z,55904.00
2018-07-13T07:26:10.688Z,54656.00
2018-07-13T07:27:10.742Z,56064.00
2018-07-13T07:28:10.827Z,61056.00
2018-07-13T07:29:10.850Z,63072.00
2018-07-13T07:30:10.902Z,57824.00
2018-07-13T07:31:10.953Z,51872.00
2018-07-13T07:32:11.007Z,52672.00
2018-07-13T07:33:11.091Z,70592.00
2018-07-13T07:34:11.116Z,90304.00
2018-07-13T07:35:11.175Z,88096.00
2018-07-13T07:36:11.247Z,77344.00
2018-07-13T07:37:11.273Z,53184.00
2018-07-13T07:38:11.327Z,54080.00
2018-07-13T07:39:11.380Z,57472.00
2018-07-13T07:40:11.434Z,70688.00
2018-07-13T07:41:11.509Z,79392.00
2018-07-13T07:42:11.540Z,73696.00
2018-07-13T07:43:11.594Z,69440.00
2018-07-13T07:44:11.649Z,68640.00
2018-07-13T07:45:11.703Z,64896.00
2018-07-13T07:46:11.784Z,69056.00
2018-07-13T07:47:11.807Z,82080.00
2018-07-13T07:48:11.860Z,87584.00
2018-07-13T07:49:11.913Z,82560.00
2018-07-13T07:50:11.968Z,68736.00
2018-07-13T07:51:12.055Z,60992.00
2018-07-13T07:52:12.077Z,64896.00
2018-07-13T07:53:12.137Z,73408.00
2018-07-13T07:54:12.181Z,72992.00
2018-07-13T07:55:12.241Z,67584.00
2018-07-13T07:56:12.315Z,62144.00
2018-07-13T07:57:12.368Z,53728.00
2018-07-13T07:58:12.421Z,44640.00
2018-07-13T07:59:12.458Z,40320.00
2018-07-13T08:00:12.507Z,47776.00
2018-07-13T08:01:12.559Z,69920.00
2018-07-13T08:02:12.639Z,86176.00
2018-07-13T08:03:12.666Z,86144.00
2018-07-13T08:04:12.721Z,75936.00
2018-07-13T08:05:12.778Z,68608.00
2018-07-13T08:06:12.922Z,65920.00
2018-07-13T08:07:13.260Z,69632.00
2018-07-13T08:08:12.938Z,75840.00
2018-07-13T08:09:12.989Z,77120.00
2018-07-13T08:10:13.046Z,68640.00
2018-07-13T08:11:13.101Z,59776.00
2018-07-13T08:12:13.192Z,59616.00
2018-07-13T08:13:13.206Z,73312.00
2018-07-13T08:14:13.644Z,86112.00
2018-07-13T08:15:13.315Z,88064.00
2018-07-13T08:16:13.370Z,87520.00
2018-07-13T08:17:13.453Z,86080.00
2018-07-13T08:18:13.477Z,85472.00
2018-07-13T08:19:13.535Z,86976.00
2018-07-13T08:20:13.586Z,94848.00
2018-07-13T08:21:13.639Z,104448.00
2018-07-13T08:22:13.727Z,107264.00
2018-07-13T08:23:13.751Z,92864.00
2018-07-13T08:24:13.805Z,68128.00
2018-07-13T08:25:13.857Z,55968.00
2018-07-13T08:26:13.912Z,63200.00
2018-07-13T08:27:14.006Z,72800.00
2018-07-13T08:28:14.021Z,74304.00
2018-07-13T08:29:14.077Z,66464.00
2018-07-13T08:30:14.134Z,55072.00
2018-07-13T08:31:14.188Z,55648.00
2018-07-13T08:32:14.270Z,69280.00
2018-07-13T08:33:14.295Z,90880.00
2018-07-13T08:34:14.349Z,111424.00
2018-07-13T08:35:14.405Z,113408.00
2018-07-13T08:36:14.468Z,108800.00
2018-07-13T08:37:14.542Z,97664.00
2018-07-13T08:38:14.567Z,88800.00
2018-07-13T08:39:14.623Z,82560.00
2018-07-13T08:40:14.676Z,79552.00
2018-07-13T08:41:14.735Z,78880.00
2018-07-13T08:42:14.810Z,78080.00
2018-07-13T08:43:14.840Z,76192.00
2018-07-13T08:44:14.901Z,69888.00
2018-07-13T08:45:14.978Z,63712.00
2018-07-13T08:46:15.006Z,62208.00
2018-07-13T08:47:15.058Z,66368.00
2018-07-13T08:48:15.113Z,73568.00
2018-07-13T08:49:15.168Z,82432.00
2018-07-13T08:50:15.284Z,86752.00
2018-07-13T08:51:15.284Z,88640.00
2018-07-13T08:52:15.333Z,88768.00
2018-07-13T08:53:15.385Z,96096.00
2018-07-13T08:54:15.462Z,106368.00
2018-07-13T08:55:15.494Z,113312.00
2018-07-13T08:56:15.630Z,121632.00
2018-07-13T08:57:15.604Z,125504.00
2018-07-13T08:58:15.657Z,122816.00
2018-07-13T08:59:15.714Z,115520.00
2018-07-13T09:00:15.766Z,108064.00
2018-07-13T09:01:15.846Z,102624.00
2018-07-13T09:02:15.876Z,96672.00
2018-07-13T09:03:15.943Z,91040.00
2018-07-13T09:04:16.036Z,88896.00
2018-07-13T09:05:16.039Z,91648.00
2018-07-13T09:06:16.116Z,96160.00
2018-07-13T09:07:16.155Z,106048.00
2018-07-13T09:08:16.206Z,115552.00
2018-07-13T09:09:16.260Z,124256.00
2018-07-13T09:10:16.316Z,120320.00
2018-07-13T09:11:16.392Z,104256.00
2018-07-13T09:12:16.428Z,82240.00
2018-07-13T09:13:16.476Z,74176.00
2018-07-13T09:14:16.535Z,74336.00
2018-07-13T09:15:16.591Z,76768.00
2018-07-13T09:16:16.672Z,78144.00
2018-07-13T09:17:16.697Z,84416.00
2018-07-13T09:18:16.803Z,94592.00
2018-07-13T09:19:16.809Z,104064.00
2018-07-13T09:20:16.867Z,114304.00
2018-07-13T09:21:16.943Z,120352.00
2018-07-13T09:22:16.975Z,118240.00
2018-07-13T09:23:17.055Z,106080.00
2018-07-13T09:24:17.694Z,92352.00
2018-07-13T09:25:17.150Z,89312.00
2018-07-13T09:26:17.201Z,94976.00
2018-07-13T09:27:17.261Z,106112.00
2018-07-13T09:28:17.334Z,110784.00
2018-07-13T09:29:17.371Z,106880.00
2018-07-13T09:30:17.420Z,104128.00
2018-07-13T09:31:17.527Z,106592.00
2018-07-13T09:32:17.566Z,110624.00
2018-07-13T09:33:17.612Z,115584.00
2018-07-13T09:34:17.649Z,116576.00
2018-07-13T09:35:17.697Z,115104.00
2018-07-13T09:36:17.755Z,111680.00
2018-07-13T09:37:17.837Z,111456.00
2018-07-13T09:38:17.892Z,110144.00
2018-07-13T09:39:17.953Z,108192.00
2018-07-13T09:40:17.975Z,110848.00
2018-07-13T09:41:18.040Z,113632.00
2018-07-13T09:42:18.088Z,113408.00
2018-07-13T09:43:18.161Z,110944.00
2018-07-13T09:44:18.223Z,103680.00
2018-07-13T09:45:18.254Z,94176.00
2018-07-13T09:46:18.309Z,85920.00
2018-07-13T09:47:18.365Z,85824.00
2018-07-13T09:48:18.424Z,95424.00
2018-07-13T09:49:18.517Z,111424.00
2018-07-13T09:50:18.532Z,123328.00
2018-07-13T09:51:18.588Z,123040.00
2018-07-13T09:52:18.646Z,117312.00
2018-07-13T09:53:18.699Z,116224.00
2018-07-13T09:54:18.789Z,116928.00
2018-07-13T09:55:18.811Z,119584.00
2018-07-13T09:56:18.868Z,120480.00
2018-07-13T09:57:18.925Z,114944.00
2018-07-13T09:58:18.983Z,106464.00
2018-07-13T09:59:19.068Z,101280.00
2018-07-13T10:00:19.091Z,102240.00
2018-07-13T10:01:19.148Z,110528.00
2018-07-13T10:02:19.213Z,119744.00
2018-07-13T10:03:19.260Z,127968.00
2018-07-13T10:04:19.348Z,125664.00
2018-07-13T10:05:19.404Z,113504.00
2018-07-13T10:06:19.463Z,99616.00
2018-07-13T10:07:19.484Z,91936.00
2018-07-13T10:08:19.540Z,89472.00
2018-07-13T10:09:19.596Z,92128.00
2018-07-13T10:10:19.675Z,94240.00
2018-07-13T10:11:19.708Z,94208.00
2018-07-13T10:12:19.765Z,93408.00
2018-07-13T10:13:19.849Z,92608.00
2018-07-13T10:14:19.877Z,97376.00
2018-07-13T10:15:19.960Z,101056.00
2018-07-13T10:16:19.993Z,101184.00
2018-07-13T10:17:20.049Z,105184.00
2018-07-13T10:18:20.106Z,113056.00
2018-07-13T10:19:20.161Z,122016.00
2018-07-13T10:20:20.242Z,126496.00
2018-07-13T10:21:20.299Z,131584.00
2018-07-13T10:22:20.330Z,124832.00
2018-07-13T10:23:20.401Z,115872.00
2018-07-13T10:24:20.446Z,106592.00
2018-07-13T10:25:20.535Z,97728.00
2018-07-13T10:26:20.584Z,94144.00
2018-07-13T10:27:20.615Z,93632.00
2018-07-13T10:28:20.668Z,93696.00
2018-07-13T10:29:20.830Z,91552.00
2018-07-13T10:30:20.784Z,89632.00
2018-07-13T10:31:20.861Z,91136.00
2018-07-13T10:32:20.892Z,97920.00
2018-07-13T10:33:20.946Z,108384.00
2018-07-13T10:34:21.003Z,115424.00
2018-07-13T10:35:21.099Z,120448.00
2018-07-13T10:36:21.117Z,120928.00
2018-07-13T10:37:21.197Z,124384.00
2018-07-13T10:38:21.232Z,131072.00
2018-07-13T10:39:21.288Z,134560.00
2018-07-13T10:40:21.342Z,131552.00
2018-07-13T10:41:21.444Z,122688.00
2018-07-13T10:42:21.455Z,118336.00
2018-07-13T10:43:21.515Z,111936.00
2018-07-13T10:44:21.567Z,116256.00
2018-07-13T10:45:21.625Z,125760.00
2018-07-13T10:46:21.712Z,134144.00
2018-07-13T10:47:21.761Z,138592.00
2018-07-13T10:48:21.794Z,133568.00
2018-07-13T10:49:21.847Z,125632.00
2018-07-13T10:50:21.904Z,115936.00
2018-07-13T10:51:21.967Z,108576.00
2018-07-13T10:52:22.062Z,102720.00
2018-07-13T10:53:22.074Z,104096.00
2018-07-13T10:54:22.131Z,109312.00
2018-07-13T10:55:22.187Z,115456.00
2018-07-13T10:56:22.247Z,122208.00
2018-07-13T10:57:22.335Z,128384.00
2018-07-13T10:58:22.362Z,131136.00
2018-07-13T10:59:22.421Z,132160.00
2018-07-13T11:00:22.477Z,132704.00
2018-07-13T11:01:22.531Z,131520.00
2018-07-13T11:02:22.613Z,133728.00
2018-07-13T11:03:22.645Z,129184.00
2018-07-13T11:04:22.698Z,122496.00
2018-07-13T11:05:22.753Z,110432.00
2018-07-13T11:06:22.819Z,104064.00
2018-07-13T11:07:22.895Z,103584.00
2018-07-13T11:08:22.993Z,108704.00
2018-07-13T11:09:22.981Z,117120.00
2018-07-13T11:10:23.038Z,127648.00
2018-07-13T11:11:23.097Z,134976.00
2018-07-13T11:12:23.176Z,141632.00
2018-07-13T11:13:23.232Z,142560.00
2018-07-13T11:14:23.261Z,141696.00
2018-07-13T11:15:23.318Z,134848.00
2018-07-13T11:16:23.377Z,129152.00
2018-07-13T11:17:23.432Z,125824.00
2018-07-13T11:18:23.515Z,122144.00
2018-07-13T11:19:23.566Z,122688.00
2018-07-13T11:20:23.608Z,123744.00
2018-07-13T11:21:23.655Z,129536.00
2018-07-13T11:22:23.712Z,135456.00
2018-07-13T11:23:23.769Z,139232.00
2018-07-13T11:24:23.877Z,144768.00
2018-07-13T11:25:23.883Z,145568.00
2018-07-13T11:26:23.941Z,141120.00
2018-07-13T11:27:23.995Z,134304.00
2018-07-13T11:28:24.053Z,122848.00
2018-07-13T11:29:24.133Z,114208.00
2018-07-13T11:30:24.168Z,111968.00
2018-07-13T11:31:24.222Z,114880.00
2018-07-13T11:32:24.282Z,118560.00
2018-07-13T11:33:24.343Z,118912.00
2018-07-13T11:34:24.421Z,117408.00
2018-07-13T11:35:24.449Z,115488.00
2018-07-13T11:36:24.507Z,116736.00
2018-07-13T11:37:24.704Z,114080.00
2018-07-13T11:38:24.621Z,107552.00
2018-07-13T11:39:24.705Z,105120.00
2018-07-13T11:40:24.736Z,100032.00
2018-07-13T11:41:24.793Z,99488.00
2018-07-13T11:42:24.845Z,101088.00
2018-07-13T11:43:24.906Z,109888.00
2018-07-13T11:44:24.987Z,122016.00
2018-07-13T11:45:25.049Z,130880.00
2018-07-13T11:46:25.075Z,136544.00
2018-07-13T11:47:25.130Z,135264.00
2018-07-13T11:48:25.189Z,130720.00
2018-07-13T11:49:25.245Z,125312.00
2018-07-13T11:50:25.327Z,126272.00
2018-07-13T11:51:25.359Z,124160.00
2018-07-13T11:52:25.417Z,124352.00
2018-07-13T11:53:25.471Z,118144.00
2018-07-13T11:54:25.531Z,104032.00
2018-07-13T11:55:25.612Z,95552.00
2018-07-13T11:56:25.645Z,99488.00
2018-07-13T11:57:25.703Z,109376.00
2018-07-13T11:58:25.760Z,117664.00
2018-07-13T11:59:25.819Z,122496.00
2018-07-13T12:00:25.939Z,129792.00
2018-07-13T12:01:25.930Z,135296.00
2018-07-13T12:02:25.988Z,136832.00
2018-07-13T12:03:26.045Z,136352.00
2018-07-13T12:04:26.104Z,134688.00
2018-07-13T12:05:26.193Z,133632.00
2018-07-13T12:06:26.220Z,135136.00
2018-07-13T12:07:26.360Z,139072.00
2018-07-13T12:08:26.334Z,142272.00
2018-07-13T12:09:26.388Z,145056.00
2018-07-13T12:10:26.478Z,141632.00
2018-07-13T12:11:26.505Z,134240.00
2018-07-13T12:12:26.570Z,128288.00